sensor_id;sensor_type;location;lat;lon;timestamp;P1;durP1;ratioP1;P2;durP2;ratioP2
13032;SDS011;6583;42.632;23.298;2023-06-19T00:01:28;5.65;;;5.07;;
13032;SDS011;6583;42.632;23.298;2023-06-19T00:03:55;5.70;;;5.15;;
13032;SDS011;6583;42.632;23.298;2023-06-19T00:06:23;5.75;;;5.25;;
13032;SDS011;6583;42.632;23.298;2023-06-19T00:08:52;6.65;;;5.20;;
13032;SDS011;6583;42.632;23.298;2023-06-19T00:11:18;5.28;;;4.78;;
13032;SDS011;6583;42.632;23.298;2023-06-19T00:13:45;6.30;;;5.20;;
13032;SDS011;6583;42.632;23.298;2023-06-19T00:16:12;5.22;;;4.82;;
13032;SDS011;6583;42.632;23.298;2023-06-19T00:18:38;5.93;;;5.30;;
13032;SDS011;6583;42.632;23.298;2023-06-19T00:21:05;5.72;;;5.25;;
13032;SDS011;6583;42.632;23.298;2023-06-19T00:23:34;5.65;;;5.15;;
13032;SDS011;6583;42.632;23.298;2023-06-19T00:26:00;6.22;;;5.50;;
13032;SDS011;6583;42.632;23.298;2023-06-19T00:28:28;5.85;;;5.22;;
13032;SDS011;6583;42.632;23.298;2023-06-19T00:30:55;5.55;;;5.05;;
13032;SDS011;6583;42.632;23.298;2023-06-19T00:33:21;5.88;;;5.38;;
13032;SDS011;6583;42.632;23.298;2023-06-19T00:35:49;5.63;;;5.07;;
13032;SDS011;6583;42.632;23.298;2023-06-19T00:38:16;5.68;;;5.18;;
13032;SDS011;6583;42.632;23.298;2023-06-19T00:40:44;5.63;;;5.13;;
13032;SDS011;6583;42.632;23.298;2023-06-19T00:43:11;6.05;;;5.15;;
13032;SDS011;6583;42.632;23.298;2023-06-19T00:45:38;7.30;;;5.55;;
13032;SDS011;6583;42.632;23.298;2023-06-19T00:48:05;6.80;;;5.65;;
13032;SDS011;6583;42.632;23.298;2023-06-19T00:50:32;5.82;;;5.10;;
13032;SDS011;6583;42.632;23.298;2023-06-19T00:52:59;6.53;;;5.70;;
13032;SDS011;6583;42.632;23.298;2023-06-19T00:55:28;6.20;;;5.60;;
13032;SDS011;6583;42.632;23.298;2023-06-19T00:57:56;5.97;;;5.28;;
13032;SDS011;6583;42.632;23.298;2023-06-19T01:00:24;5.88;;;5.20;;
13032;SDS011;6583;42.632;23.298;2023-06-19T01:02:51;6.25;;;5.75;;
13032;SDS011;6583;42.632;23.298;2023-06-19T01:05:17;6.38;;;5.15;;
13032;SDS011;6583;42.632;23.298;2023-06-19T01:07:46;6.30;;;5.70;;
13032;SDS011;6583;42.632;23.298;2023-06-19T01:10:20;6.35;;;5.60;;
13032;SDS011;6583;42.632;23.298;2023-06-19T01:12:52;6.18;;;5.68;;
13032;SDS011;6583;42.632;23.298;2023-06-19T01:15:26;7.40;;;5.80;;
13032;SDS011;6583;42.632;23.298;2023-06-19T01:17:54;6.47;;;5.88;;
13032;SDS011;6583;42.632;23.298;2023-06-19T01:20:22;6.90;;;6.30;;
13032;SDS011;6583;42.632;23.298;2023-06-19T01:22:51;6.70;;;6.03;;
13032;SDS011;6583;42.632;23.298;2023-06-19T01:25:21;6.80;;;6.13;;
13032;SDS011;6583;42.632;23.298;2023-06-19T01:27:49;6.72;;;6.07;;
13032;SDS011;6583;42.632;23.298;2023-06-19T01:30:16;6.47;;;5.88;;
13032;SDS011;6583;42.632;23.298;2023-06-19T01:32:45;8.05;;;5.88;;
13032;SDS011;6583;42.632;23.298;2023-06-19T01:35:17;7.60;;;6.90;;
13032;SDS011;6583;42.632;23.298;2023-06-19T01:37:48;7.00;;;6.40;;
13032;SDS011;6583;42.632;23.298;2023-06-19T01:40:17;7.72;;;7.00;;
13032;SDS011;6583;42.632;23.298;2023-06-19T01:42:46;7.22;;;6.50;;
13032;SDS011;6583;42.632;23.298;2023-06-19T01:45:14;6.68;;;6.13;;
13032;SDS011;6583;42.632;23.298;2023-06-19T01:47:40;7.20;;;6.50;;
13032;SDS011;6583;42.632;23.298;2023-06-19T01:50:08;7.65;;;6.95;;
13032;SDS011;6583;42.632;23.298;2023-06-19T01:52:37;8.07;;;7.13;;
13032;SDS011;6583;42.632;23.298;2023-06-19T01:55:04;7.35;;;6.65;;
13032;SDS011;6583;42.632;23.298;2023-06-19T01:57:32;7.82;;;6.72;;
13032;SDS011;6583;42.632;23.298;2023-06-19T02:00:01;7.80;;;7.10;;
13032;SDS011;6583;42.632;23.298;2023-06-19T02:02:29;7.78;;;6.97;;
13032;SDS011;6583;42.632;23.298;2023-06-19T02:04:56;7.68;;;6.90;;
13032;SDS011;6583;42.632;23.298;2023-06-19T02:07:23;7.60;;;6.90;;
13032;SDS011;6583;42.632;23.298;2023-06-19T02:09:49;7.95;;;7.25;;
13032;SDS011;6583;42.632;23.298;2023-06-19T02:12:16;8.38;;;7.53;;
13032;SDS011;6583;42.632;23.298;2023-06-19T02:14:44;7.35;;;6.63;;
13032;SDS011;6583;42.632;23.298;2023-06-19T02:17:11;8.25;;;7.43;;
13032;SDS011;6583;42.632;23.298;2023-06-19T02:19:37;8.38;;;7.47;;
13032;SDS011;6583;42.632;23.298;2023-06-19T02:22:04;7.65;;;6.95;;
13032;SDS011;6583;42.632;23.298;2023-06-19T02:24:31;7.63;;;7.00;;
13032;SDS011;6583;42.632;23.298;2023-06-19T02:26:58;8.30;;;7.60;;
13032;SDS011;6583;42.632;23.298;2023-06-19T02:29:25;7.43;;;6.65;;
13032;SDS011;6583;42.632;23.298;2023-06-19T02:31:55;7.90;;;7.13;;
13032;SDS011;6583;42.632;23.298;2023-06-19T02:34:22;8.20;;;7.40;;
13032;SDS011;6583;42.632;23.298;2023-06-19T02:36:49;9.57;;;7.18;;
13032;SDS011;6583;42.632;23.298;2023-06-19T02:39:16;9.23;;;7.70;;
13032;SDS011;6583;42.632;23.298;2023-06-19T02:41:43;8.30;;;7.50;;
13032;SDS011;6583;42.632;23.298;2023-06-19T02:44:11;9.80;;;7.22;;
13032;SDS011;6583;42.632;23.298;2023-06-19T02:46:38;8.68;;;7.68;;
13032;SDS011;6583;42.632;23.298;2023-06-19T02:49:06;8.18;;;7.38;;
13032;SDS011;6583;42.632;23.298;2023-06-19T02:51:33;8.60;;;7.50;;
13032;SDS011;6583;42.632;23.298;2023-06-19T02:54:00;8.30;;;7.30;;
13032;SDS011;6583;42.632;23.298;2023-06-19T02:56:26;8.15;;;7.35;;
13032;SDS011;6583;42.632;23.298;2023-06-19T02:58:53;7.93;;;7.10;;
13032;SDS011;6583;42.632;23.298;2023-06-19T03:01:20;11.07;;;7.53;;
13032;SDS011;6583;42.632;23.298;2023-06-19T03:03:47;7.78;;;6.97;;
13032;SDS011;6583;42.632;23.298;2023-06-19T03:06:15;8.18;;;7.38;;
13032;SDS011;6583;42.632;23.298;2023-06-19T03:08:43;9.82;;;7.28;;
13032;SDS011;6583;42.632;23.298;2023-06-19T03:11:10;11.05;;;7.30;;
13032;SDS011;6583;42.632;23.298;2023-06-19T03:13:43;8.18;;;6.75;;
13032;SDS011;6583;42.632;23.298;2023-06-19T03:16:11;8.48;;;7.00;;
13032;SDS011;6583;42.632;23.298;2023-06-19T03:18:39;8.10;;;7.18;;
13032;SDS011;6583;42.632;23.298;2023-06-19T03:21:06;8.45;;;6.72;;
13032;SDS011;6583;42.632;23.298;2023-06-19T03:23:34;7.63;;;6.95;;
13032;SDS011;6583;42.632;23.298;2023-06-19T03:26:00;8.02;;;6.63;;
13032;SDS011;6583;42.632;23.298;2023-06-19T03:28:27;7.78;;;7.07;;
13032;SDS011;6583;42.632;23.298;2023-06-19T03:30:54;7.68;;;6.88;;
13032;SDS011;6583;42.632;23.298;2023-06-19T03:33:21;8.25;;;7.18;;
13032;SDS011;6583;42.632;23.298;2023-06-19T03:35:48;8.95;;;6.95;;
13032;SDS011;6583;42.632;23.298;2023-06-19T03:38:14;7.93;;;6.30;;
13032;SDS011;6583;42.632;23.298;2023-06-19T03:40:43;6.78;;;6.18;;
13032;SDS011;6583;42.632;23.298;2023-06-19T03:43:10;7.78;;;6.82;;
13032;SDS011;6583;42.632;23.298;2023-06-19T03:45:36;7.10;;;6.43;;
13032;SDS011;6583;42.632;23.298;2023-06-19T03:48:03;6.22;;;5.72;;
13032;SDS011;6583;42.632;23.298;2023-06-19T03:50:30;6.72;;;6.00;;
13032;SDS011;6583;42.632;23.298;2023-06-19T03:52:57;6.15;;;5.65;;
13032;SDS011;6583;42.632;23.298;2023-06-19T03:55:24;8.68;;;6.65;;
13032;SDS011;6583;42.632;23.298;2023-06-19T03:57:52;6.57;;;5.90;;
13032;SDS011;6583;42.632;23.298;2023-06-19T04:00:19;6.35;;;5.75;;
13032;SDS011;6583;42.632;23.298;2023-06-19T04:02:45;6.45;;;5.57;;
13032;SDS011;6583;42.632;23.298;2023-06-19T04:05:12;5.93;;;5.25;;
13032;SDS011;6583;42.632;23.298;2023-06-19T04:07:40;5.78;;;5.28;;
13032;SDS011;6583;42.632;23.298;2023-06-19T04:10:07;5.88;;;5.38;;
13032;SDS011;6583;42.632;23.298;2023-06-19T04:12:36;5.97;;;5.38;;
13032;SDS011;6583;42.632;23.298;2023-06-19T04:15:05;6.10;;;5.55;;
13032;SDS011;6583;42.632;23.298;2023-06-19T04:17:32;8.27;;;6.00;;
13032;SDS011;6583;42.632;23.298;2023-06-19T04:19:59;6.03;;;5.50;;
13032;SDS011;6583;42.632;23.298;2023-06-19T04:22:25;6.60;;;5.78;;
13032;SDS011;6583;42.632;23.298;2023-06-19T04:24:52;6.07;;;5.40;;
13032;SDS011;6583;42.632;23.298;2023-06-19T04:27:18;5.75;;;5.10;;
13032;SDS011;6583;42.632;23.298;2023-06-19T04:29:45;5.60;;;4.85;;
13032;SDS011;6583;42.632;23.298;2023-06-19T04:32:13;5.60;;;5.10;;
13032;SDS011;6583;42.632;23.298;2023-06-19T04:34:40;5.78;;;5.20;;
13032;SDS011;6583;42.632;23.298;2023-06-19T04:37:11;5.70;;;5.20;;
13032;SDS011;6583;42.632;23.298;2023-06-19T04:39:38;5.78;;;5.18;;
13032;SDS011;6583;42.632;23.298;2023-06-19T04:42:05;5.95;;;4.88;;
13032;SDS011;6583;42.632;23.298;2023-06-19T04:44:32;5.40;;;4.90;;
13032;SDS011;6583;42.632;23.298;2023-06-19T04:46:59;5.18;;;4.53;;
13032;SDS011;6583;42.632;23.298;2023-06-19T04:49:28;4.95;;;4.55;;
13032;SDS011;6583;42.632;23.298;2023-06-19T04:51:56;5.25;;;4.68;;
13032;SDS011;6583;42.632;23.298;2023-06-19T04:54:24;5.35;;;4.85;;
13032;SDS011;6583;42.632;23.298;2023-06-19T04:56:51;5.57;;;5.10;;
13032;SDS011;6583;42.632;23.298;2023-06-19T04:59:18;5.00;;;4.60;;
13032;SDS011;6583;42.632;23.298;2023-06-19T05:01:45;4.78;;;4.38;;
13032;SDS011;6583;42.632;23.298;2023-06-19T05:04:11;5.25;;;4.75;;
13032;SDS011;6583;42.632;23.298;2023-06-19T05:06:40;5.25;;;4.78;;
13032;SDS011;6583;42.632;23.298;2023-06-19T05:09:07;5.70;;;4.68;;
13032;SDS011;6583;42.632;23.298;2023-06-19T05:11:34;5.22;;;4.63;;
13032;SDS011;6583;42.632;23.298;2023-06-19T05:14:01;5.10;;;4.63;;
13032;SDS011;6583;42.632;23.298;2023-06-19T05:16:27;5.30;;;4.80;;
13032;SDS011;6583;42.632;23.298;2023-06-19T05:18:54;5.47;;;4.97;;
13032;SDS011;6583;42.632;23.298;2023-06-19T05:21:21;5.72;;;5.07;;
13032;SDS011;6583;42.632;23.298;2023-06-19T05:23:49;5.40;;;4.90;;
13032;SDS011;6583;42.632;23.298;2023-06-19T05:26:17;4.50;;;4.10;;
13032;SDS011;6583;42.632;23.298;2023-06-19T05:28:45;5.60;;;5.05;;
13032;SDS011;6583;42.632;23.298;2023-06-19T05:31:11;8.45;;;4.88;;
13032;SDS011;6583;42.632;23.298;2023-06-19T05:33:38;4.97;;;4.57;;
13032;SDS011;6583;42.632;23.298;2023-06-19T05:36:05;5.13;;;4.63;;
13032;SDS011;6583;42.632;23.298;2023-06-19T05:38:31;5.13;;;4.70;;
13032;SDS011;6583;42.632;23.298;2023-06-19T05:40:59;4.93;;;4.47;;
13032;SDS011;6583;42.632;23.298;2023-06-19T05:43:26;5.03;;;4.63;;
13032;SDS011;6583;42.632;23.298;2023-06-19T05:45:53;5.40;;;4.88;;
13032;SDS011;6583;42.632;23.298;2023-06-19T05:48:20;5.30;;;4.90;;
13032;SDS011;6583;42.632;23.298;2023-06-19T05:50:47;5.05;;;4.57;;
13032;SDS011;6583;42.632;23.298;2023-06-19T05:53:14;5.45;;;4.95;;
13032;SDS011;6583;42.632;23.298;2023-06-19T05:55:41;4.95;;;4.50;;
13032;SDS011;6583;42.632;23.298;2023-06-19T05:58:09;5.43;;;4.93;;
13032;SDS011;6583;42.632;23.298;2023-06-19T06:00:35;5.28;;;4.88;;
13032;SDS011;6583;42.632;23.298;2023-06-19T06:03:02;5.00;;;4.60;;
13032;SDS011;6583;42.632;23.298;2023-06-19T06:05:29;5.05;;;4.65;;
13032;SDS011;6583;42.632;23.298;2023-06-19T06:07:55;5.28;;;4.82;;
13032;SDS011;6583;42.632;23.298;2023-06-19T06:10:22;5.88;;;4.80;;
13032;SDS011;6583;42.632;23.298;2023-06-19T06:12:50;5.47;;;4.70;;
13032;SDS011;6583;42.632;23.298;2023-06-19T06:15:18;4.63;;;4.22;;
13032;SDS011;6583;42.632;23.298;2023-06-19T06:17:45;5.32;;;4.82;;
13032;SDS011;6583;42.632;23.298;2023-06-19T06:20:12;5.20;;;4.72;;
13032;SDS011;6583;42.632;23.298;2023-06-19T06:22:39;5.07;;;4.68;;
13032;SDS011;6583;42.632;23.298;2023-06-19T06:25:06;6.38;;;5.15;;
13032;SDS011;6583;42.632;23.298;2023-06-19T06:27:33;6.18;;;4.55;;
13032;SDS011;6583;42.632;23.298;2023-06-19T06:30:00;5.30;;;4.90;;
13032;SDS011;6583;42.632;23.298;2023-06-19T06:32:28;4.90;;;4.50;;
13032;SDS011;6583;42.632;23.298;2023-06-19T06:34:56;5.07;;;4.53;;
13032;SDS011;6583;42.632;23.298;2023-06-19T06:37:23;5.72;;;4.80;;
13032;SDS011;6583;42.632;23.298;2023-06-19T06:39:50;5.05;;;4.65;;
13032;SDS011;6583;42.632;23.298;2023-06-19T06:42:17;5.78;;;4.80;;
13032;SDS011;6583;42.632;23.298;2023-06-19T06:44:44;4.80;;;4.20;;
13032;SDS011;6583;42.632;23.298;2023-06-19T06:47:11;6.65;;;5.05;;
13032;SDS011;6583;42.632;23.298;2023-06-19T06:49:40;5.05;;;4.65;;
13032;SDS011;6583;42.632;23.298;2023-06-19T06:52:07;6.15;;;4.88;;
13032;SDS011;6583;42.632;23.298;2023-06-19T06:54:33;5.82;;;4.82;;
13032;SDS011;6583;42.632;23.298;2023-06-19T06:57:00;4.88;;;4.53;;
13032;SDS011;6583;42.632;23.298;2023-06-19T06:59:27;5.20;;;4.68;;
13032;SDS011;6583;42.632;23.298;2023-06-19T07:01:54;6.13;;;4.20;;
13032;SDS011;6583;42.632;23.298;2023-06-19T07:04:21;5.43;;;4.90;;
13032;SDS011;6583;42.632;23.298;2023-06-19T07:06:49;5.20;;;4.70;;
13032;SDS011;6583;42.632;23.298;2023-06-19T07:09:18;5.47;;;4.90;;
13032;SDS011;6583;42.632;23.298;2023-06-19T07:11:46;6.25;;;4.47;;
13032;SDS011;6583;42.632;23.298;2023-06-19T07:14:13;5.07;;;4.60;;
13032;SDS011;6583;42.632;23.298;2023-06-19T07:16:42;5.00;;;4.60;;
13032;SDS011;6583;42.632;23.298;2023-06-19T07:19:09;5.00;;;4.60;;
13032;SDS011;6583;42.632;23.298;2023-06-19T07:21:36;5.15;;;4.50;;
13032;SDS011;6583;42.632;23.298;2023-06-19T07:24:04;6.53;;;4.68;;
13032;SDS011;6583;42.632;23.298;2023-06-19T07:26:31;7.40;;;6.70;;
13032;SDS011;6583;42.632;23.298;2023-06-19T07:28:58;4.75;;;4.32;;
13032;SDS011;6583;42.632;23.298;2023-06-19T07:31:25;4.80;;;4.40;;
13032;SDS011;6583;42.632;23.298;2023-06-19T07:33:51;4.78;;;4.32;;
13032;SDS011;6583;42.632;23.298;2023-06-19T07:36:18;5.55;;;5.00;;
13032;SDS011;6583;42.632;23.298;2023-06-19T07:38:45;4.93;;;4.47;;
13032;SDS011;6583;42.632;23.298;2023-06-19T07:41:13;4.68;;;4.28;;
13032;SDS011;6583;42.632;23.298;2023-06-19T07:43:40;5.00;;;4.60;;
13032;SDS011;6583;42.632;23.298;2023-06-19T07:46:06;5.07;;;4.57;;
13032;SDS011;6583;42.632;23.298;2023-06-19T07:48:33;4.55;;;4.20;;
13032;SDS011;6583;42.632;23.298;2023-06-19T07:51:00;5.15;;;4.65;;
13032;SDS011;6583;42.632;23.298;2023-06-19T07:53:26;4.97;;;4.53;;
13032;SDS011;6583;42.632;23.298;2023-06-19T07:55:53;5.30;;;4.50;;
13032;SDS011;6583;42.632;23.298;2023-06-19T07:58:21;9.32;;;4.60;;
13032;SDS011;6583;42.632;23.298;2023-06-19T08:00:48;5.32;;;4.82;;
13032;SDS011;6583;42.632;23.298;2023-06-19T08:03:15;5.75;;;4.63;;
13032;SDS011;6583;42.632;23.298;2023-06-19T08:05:41;4.93;;;4.43;;
13032;SDS011;6583;42.632;23.298;2023-06-19T08:08:08;4.70;;;4.30;;
13032;SDS011;6583;42.632;23.298;2023-06-19T08:10:35;4.70;;;4.30;;
13032;SDS011;6583;42.632;23.298;2023-06-19T08:13:01;4.70;;;4.07;;
13032;SDS011;6583;42.632;23.298;2023-06-19T08:15:30;4.05;;;3.65;;
13032;SDS011;6583;42.632;23.298;2023-06-19T08:17:57;4.35;;;3.95;;
13032;SDS011;6583;42.632;23.298;2023-06-19T08:20:23;4.20;;;3.90;;
13032;SDS011;6583;42.632;23.298;2023-06-19T08:22:50;4.82;;;4.43;;
13032;SDS011;6583;42.632;23.298;2023-06-19T08:25:17;5.05;;;3.90;;
13032;SDS011;6583;42.632;23.298;2023-06-19T08:27:43;4.57;;;4.18;;
13032;SDS011;6583;42.632;23.298;2023-06-19T08:30:10;4.65;;;4.13;;
13032;SDS011;6583;42.632;23.298;2023-06-19T08:32:38;4.32;;;3.75;;
13032;SDS011;6583;42.632;23.298;2023-06-19T08:35:05;3.85;;;3.42;;
13032;SDS011;6583;42.632;23.298;2023-06-19T08:37:32;4.32;;;3.90;;
13032;SDS011;6583;42.632;23.298;2023-06-19T08:39:59;4.40;;;4.00;;
13032;SDS011;6583;42.632;23.298;2023-06-19T08:42:26;4.88;;;4.10;;
13032;SDS011;6583;42.632;23.298;2023-06-19T08:44:53;6.00;;;3.70;;
13032;SDS011;6583;42.632;23.298;2023-06-19T08:47:20;4.05;;;3.63;;
13032;SDS011;6583;42.632;23.298;2023-06-19T08:49:48;3.55;;;3.25;;
13032;SDS011;6583;42.632;23.298;2023-06-19T08:52:15;3.97;;;3.67;;
13032;SDS011;6583;42.632;23.298;2023-06-19T08:54:42;4.25;;;3.80;;
13032;SDS011;6583;42.632;23.298;2023-06-19T08:57:10;4.55;;;4.15;;
13032;SDS011;6583;42.632;23.298;2023-06-19T08:59:37;3.90;;;3.60;;
13032;SDS011;6583;42.632;23.298;2023-06-19T09:02:04;4.03;;;3.67;;
13032;SDS011;6583;42.632;23.298;2023-06-19T09:04:31;4.00;;;3.67;;
13032;SDS011;6583;42.632;23.298;2023-06-19T09:07:00;3.90;;;3.47;;
13032;SDS011;6583;42.632;23.298;2023-06-19T09:09:28;3.90;;;3.60;;
13032;SDS011;6583;42.632;23.298;2023-06-19T09:11:59;4.03;;;3.72;;
13032;SDS011;6583;42.632;23.298;2023-06-19T09:14:34;4.38;;;3.97;;
13032;SDS011;6583;42.632;23.298;2023-06-19T09:17:01;3.80;;;3.50;;
13032;SDS011;6583;42.632;23.298;2023-06-19T09:19:29;3.80;;;3.50;;
13032;SDS011;6583;42.632;23.298;2023-06-19T09:22:01;3.85;;;3.50;;
13032;SDS011;6583;42.632;23.298;2023-06-19T09:24:35;4.00;;;3.60;;
13032;SDS011;6583;42.632;23.298;2023-06-19T09:27:09;4.72;;;3.50;;
13032;SDS011;6583;42.632;23.298;2023-06-19T09:29:38;3.75;;;3.45;;
13032;SDS011;6583;42.632;23.298;2023-06-19T09:32:15;3.78;;;3.47;;
13032;SDS011;6583;42.632;23.298;2023-06-19T09:34:43;4.40;;;3.80;;
13032;SDS011;6583;42.632;23.298;2023-06-19T09:37:11;3.97;;;3.50;;
13032;SDS011;6583;42.632;23.298;2023-06-19T09:39:38;4.28;;;3.72;;
13032;SDS011;6583;42.632;23.298;2023-06-19T09:42:06;4.32;;;3.90;;
13032;SDS011;6583;42.632;23.298;2023-06-19T09:44:39;4.05;;;3.65;;
13032;SDS011;6583;42.632;23.298;2023-06-19T09:47:09;4.30;;;3.90;;
13032;SDS011;6583;42.632;23.298;2023-06-19T09:49:44;4.65;;;4.05;;
13032;SDS011;6583;42.632;23.298;2023-06-19T09:52:16;4.70;;;4.20;;
13032;SDS011;6583;42.632;23.298;2023-06-19T09:54:44;4.55;;;4.15;;
13032;SDS011;6583;42.632;23.298;2023-06-19T09:57:12;4.78;;;4.32;;
13032;SDS011;6583;42.632;23.298;2023-06-19T09:59:38;5.05;;;4.10;;
13032;SDS011;6583;42.632;23.298;2023-06-19T10:02:07;4.43;;;3.88;;
13032;SDS011;6583;42.632;23.298;2023-06-19T10:04:41;4.28;;;3.97;;
13032;SDS011;6583;42.632;23.298;2023-06-19T10:07:21;5.65;;;4.43;;
13032;SDS011;6583;42.632;23.298;2023-06-19T10:09:56;4.18;;;3.88;;
13032;SDS011;6583;42.632;23.298;2023-06-19T10:12:36;4.55;;;3.95;;
13032;SDS011;6583;42.632;23.298;2023-06-19T10:15:15;4.43;;;4.07;;
13032;SDS011;6583;42.632;23.298;2023-06-19T10:17:45;4.30;;;3.90;;
13032;SDS011;6583;42.632;23.298;2023-06-19T10:20:24;5.47;;;4.28;;
13032;SDS011;6583;42.632;23.298;2023-06-19T10:22:56;4.80;;;4.32;;
13032;SDS011;6583;42.632;23.298;2023-06-19T10:25:26;4.50;;;4.10;;
13032;SDS011;6583;42.632;23.298;2023-06-19T10:27:54;4.57;;;3.67;;
13032;SDS011;6583;42.632;23.298;2023-06-19T10:30:21;4.25;;;3.95;;
13032;SDS011;6583;42.632;23.298;2023-06-19T10:32:49;5.10;;;4.07;;
13032;SDS011;6583;42.632;23.298;2023-06-19T10:35:16;3.92;;;3.63;;
13032;SDS011;6583;42.632;23.298;2023-06-19T10:37:46;4.25;;;3.78;;
13032;SDS011;6583;42.632;23.298;2023-06-19T10:40:14;3.67;;;3.38;;
13032;SDS011;6583;42.632;23.298;2023-06-19T10:42:42;4.13;;;3.70;;
13032;SDS011;6583;42.632;23.298;2023-06-19T10:45:10;4.38;;;3.83;;
13032;SDS011;6583;42.632;23.298;2023-06-19T10:47:38;4.22;;;3.83;;
13032;SDS011;6583;42.632;23.298;2023-06-19T10:50:09;3.83;;;3.53;;
13032;SDS011;6583;42.632;23.298;2023-06-19T10:52:39;4.07;;;3.65;;
13032;SDS011;6583;42.632;23.298;2023-06-19T10:55:07;3.92;;;3.60;;
13032;SDS011;6583;42.632;23.298;2023-06-19T10:57:36;4.50;;;4.00;;
13032;SDS011;6583;42.632;23.298;2023-06-19T11:00:03;4.38;;;3.85;;
13032;SDS011;6583;42.632;23.298;2023-06-19T11:02:36;5.28;;;4.35;;
13032;SDS011;6583;42.632;23.298;2023-06-19T11:05:05;4.15;;;3.85;;
13032;SDS011;6583;42.632;23.298;2023-06-19T11:07:33;4.50;;;4.15;;
13032;SDS011;6583;42.632;23.298;2023-06-19T11:10:00;4.30;;;3.90;;
13032;SDS011;6583;42.632;23.298;2023-06-19T11:12:27;4.72;;;4.35;;
13032;SDS011;6583;42.632;23.298;2023-06-19T11:14:55;4.70;;;4.30;;
13032;SDS011;6583;42.632;23.298;2023-06-19T11:17:22;4.68;;;4.32;;
13032;SDS011;6583;42.632;23.298;2023-06-19T11:19:49;5.32;;;4.38;;
13032;SDS011;6583;42.632;23.298;2023-06-19T11:22:16;4.70;;;4.20;;
13032;SDS011;6583;42.632;23.298;2023-06-19T11:24:43;12.85;;;5.25;;
13032;SDS011;6583;42.632;23.298;2023-06-19T11:27:17;8.02;;;4.30;;
13032;SDS011;6583;42.632;23.298;2023-06-19T11:29:54;4.60;;;4.20;;
13032;SDS011;6583;42.632;23.298;2023-06-19T11:32:23;4.82;;;4.25;;
13032;SDS011;6583;42.632;23.298;2023-06-19T11:34:56;4.53;;;4.22;;
13032;SDS011;6583;42.632;23.298;2023-06-19T11:37:23;5.05;;;4.60;;
13032;SDS011;6583;42.632;23.298;2023-06-19T11:39:50;4.95;;;4.22;;
13032;SDS011;6583;42.632;23.298;2023-06-19T11:42:17;4.85;;;4.38;;
13032;SDS011;6583;42.632;23.298;2023-06-19T11:44:54;4.70;;;4.30;;
13032;SDS011;6583;42.632;23.298;2023-06-19T11:47:22;4.68;;;4.38;;
13032;SDS011;6583;42.632;23.298;2023-06-19T11:49:49;4.63;;;4.22;;
13032;SDS011;6583;42.632;23.298;2023-06-19T11:52:17;5.03;;;4.53;;
13032;SDS011;6583;42.632;23.298;2023-06-19T11:54:43;4.60;;;4.30;;
13032;SDS011;6583;42.632;23.298;2023-06-19T11:57:10;4.90;;;4.50;;
13032;SDS011;6583;42.632;23.298;2023-06-19T11:59:38;5.78;;;4.50;;
13032;SDS011;6583;42.632;23.298;2023-06-19T12:02:07;6.03;;;5.00;;
13032;SDS011;6583;42.632;23.298;2023-06-19T12:04:34;5.05;;;4.55;;
13032;SDS011;6583;42.632;23.298;2023-06-19T12:07:01;5.00;;;4.50;;
13032;SDS011;6583;42.632;23.298;2023-06-19T12:09:29;5.35;;;4.85;;
13032;SDS011;6583;42.632;23.298;2023-06-19T12:11:56;5.13;;;4.65;;
13032;SDS011;6583;42.632;23.298;2023-06-19T12:14:23;5.68;;;4.70;;
13032;SDS011;6583;42.632;23.298;2023-06-19T12:16:51;5.35;;;4.95;;
13032;SDS011;6583;42.632;23.298;2023-06-19T12:19:19;4.72;;;4.32;;
13032;SDS011;6583;42.632;23.298;2023-06-19T12:21:46;5.05;;;4.65;;
13032;SDS011;6583;42.632;23.298;2023-06-19T12:24:13;5.47;;;4.97;;
13032;SDS011;6583;42.632;23.298;2023-06-19T12:26:39;6.72;;;4.85;;
13032;SDS011;6583;42.632;23.298;2023-06-19T12:29:06;4.90;;;4.50;;
13032;SDS011;6583;42.632;23.298;2023-06-19T12:31:33;6.82;;;4.32;;
13032;SDS011;6583;42.632;23.298;2023-06-19T12:34:01;5.25;;;4.72;;
13032;SDS011;6583;42.632;23.298;2023-06-19T12:36:29;5.47;;;4.93;;
13032;SDS011;6583;42.632;23.298;2023-06-19T12:38:58;5.32;;;4.78;;
13032;SDS011;6583;42.632;23.298;2023-06-19T12:41:25;4.93;;;4.53;;
13032;SDS011;6583;42.632;23.298;2023-06-19T12:43:51;5.00;;;4.47;;
13032;SDS011;6583;42.632;23.298;2023-06-19T12:46:18;5.03;;;4.63;;
13032;SDS011;6583;42.632;23.298;2023-06-19T12:48:46;4.82;;;4.43;;
13032;SDS011;6583;42.632;23.298;2023-06-19T12:51:15;5.28;;;4.88;;
13032;SDS011;6583;42.632;23.298;2023-06-19T12:53:44;5.03;;;4.63;;
13032;SDS011;6583;42.632;23.298;2023-06-19T12:56:10;4.57;;;4.28;;
13032;SDS011;6583;42.632;23.298;2023-06-19T12:58:37;5.05;;;4.65;;
13032;SDS011;6583;42.632;23.298;2023-06-19T13:01:04;5.53;;;4.72;;
13032;SDS011;6583;42.632;23.298;2023-06-19T13:03:30;4.88;;;4.47;;
13032;SDS011;6583;42.632;23.298;2023-06-19T13:05:57;5.05;;;4.57;;
13032;SDS011;6583;42.632;23.298;2023-06-19T13:08:24;5.43;;;4.93;;
13032;SDS011;6583;42.632;23.298;2023-06-19T13:10:52;5.65;;;5.00;;
13032;SDS011;6583;42.632;23.298;2023-06-19T13:13:18;5.15;;;4.63;;
13032;SDS011;6583;42.632;23.298;2023-06-19T13:15:45;5.15;;;4.75;;
13032;SDS011;6583;42.632;23.298;2023-06-19T13:18:12;7.22;;;5.80;;
13032;SDS011;6583;42.632;23.298;2023-06-19T13:20:38;6.20;;;5.15;;
13032;SDS011;6583;42.632;23.298;2023-06-19T13:23:05;5.00;;;4.55;;
13032;SDS011;6583;42.632;23.298;2023-06-19T13:25:31;4.40;;;4.10;;
13032;SDS011;6583;42.632;23.298;2023-06-19T13:28:00;5.40;;;5.00;;
13032;SDS011;6583;42.632;23.298;2023-06-19T13:30:26;5.47;;;4.97;;
13032;SDS011;6583;42.632;23.298;2023-06-19T13:32:54;4.78;;;4.20;;
13032;SDS011;6583;42.632;23.298;2023-06-19T13:35:20;4.97;;;4.55;;
13032;SDS011;6583;42.632;23.298;2023-06-19T13:37:47;5.30;;;4.80;;
13032;SDS011;6583;42.632;23.298;2023-06-19T13:40:14;5.88;;;5.28;;
13032;SDS011;6583;42.632;23.298;2023-06-19T13:42:40;7.80;;;4.85;;
13032;SDS011;6583;42.632;23.298;2023-06-19T13:45:09;5.10;;;4.70;;
13032;SDS011;6583;42.632;23.298;2023-06-19T13:47:36;5.47;;;4.97;;
13032;SDS011;6583;42.632;23.298;2023-06-19T13:50:03;5.35;;;4.85;;
13032;SDS011;6583;42.632;23.298;2023-06-19T13:52:31;5.47;;;4.95;;
13032;SDS011;6583;42.632;23.298;2023-06-19T13:54:57;6.05;;;4.82;;
13032;SDS011;6583;42.632;23.298;2023-06-19T13:57:24;5.68;;;4.82;;
13032;SDS011;6583;42.632;23.298;2023-06-19T13:59:51;4.95;;;4.47;;
13032;SDS011;6583;42.632;23.298;2023-06-19T14:02:19;6.55;;;5.90;;
13032;SDS011;6583;42.632;23.298;2023-06-19T14:04:45;7.38;;;6.32;;
13032;SDS011;6583;42.632;23.298;2023-06-19T14:07:12;6.82;;;5.93;;
13032;SDS011;6583;42.632;23.298;2023-06-19T14:09:39;5.38;;;4.88;;
13032;SDS011;6583;42.632;23.298;2023-06-19T14:12:06;5.00;;;4.47;;
13032;SDS011;6583;42.632;23.298;2023-06-19T14:14:35;4.70;;;4.30;;
13032;SDS011;6583;42.632;23.298;2023-06-19T14:17:05;5.05;;;4.65;;
13032;SDS011;6583;42.632;23.298;2023-06-19T14:19:33;5.10;;;4.28;;
13032;SDS011;6583;42.632;23.298;2023-06-19T14:22:00;5.45;;;4.38;;
13032;SDS011;6583;42.632;23.298;2023-06-19T14:24:27;4.80;;;4.40;;
13032;SDS011;6583;42.632;23.298;2023-06-19T14:26:54;4.90;;;4.50;;
13032;SDS011;6583;42.632;23.298;2023-06-19T14:29:20;5.88;;;4.28;;
13032;SDS011;6583;42.632;23.298;2023-06-19T14:31:47;4.60;;;4.22;;
13032;SDS011;6583;42.632;23.298;2023-06-19T14:34:16;4.38;;;4.00;;
13032;SDS011;6583;42.632;23.298;2023-06-19T14:36:45;5.57;;;4.18;;
13032;SDS011;6583;42.632;23.298;2023-06-19T14:39:12;4.63;;;4.22;;
13032;SDS011;6583;42.632;23.298;2023-06-19T14:41:39;4.80;;;4.40;;
13032;SDS011;6583;42.632;23.298;2023-06-19T14:44:06;4.68;;;4.28;;
13032;SDS011;6583;42.632;23.298;2023-06-19T14:46:32;6.40;;;4.55;;
13032;SDS011;6583;42.632;23.298;2023-06-19T14:49:04;4.90;;;4.47;;
13032;SDS011;6583;42.632;23.298;2023-06-19T14:51:30;5.53;;;4.35;;